sensor_id;sensor_type;location;lat;lon;timestamp;temperature;humidity
14119;DHT22;7138;49.246;9.100;2022-10-13T00:00:42;9.30;99.90
14119;DHT22;7138;49.246;9.100;2022-10-13T00:03:10;9.30;99.90
14119;DHT22;7138;49.246;9.100;2022-10-13T00:05:40;9.20;99.90
14119;DHT22;7138;49.246;9.100;2022-10-13T00:08:08;9.20;99.90
14119;DHT22;7138;49.246;9.100;2022-10-13T00:10:36;9.20;99.90
14119;DHT22;7138;49.246;9.100;2022-10-13T00:13:03;9.20;99.90
14119;DHT22;7138;49.246;9.100;2022-10-13T00:15:29;9.10;99.90
14119;DHT22;7138;49.246;9.100;2022-10-13T00:17:56;9.10;99.90
14119;DHT22;7138;49.246;9.100;2022-10-13T00:20:22;9.10;99.90
14119;DHT22;7138;49.246;9.100;2022-10-13T00:22:49;9.10;99.90
14119;DHT22;7138;49.246;9.100;2022-10-13T00:25:15;9.20;99.90
14119;DHT22;7138;49.246;9.100;2022-10-13T00:27:41;9.10;99.90
14119;DHT22;7138;49.246;9.100;2022-10-13T00:30:07;9.00;99.90
14119;DHT22;7138;49.246;9.100;2022-10-13T00:32:34;9.00;99.90
14119;DHT22;7138;49.246;9.100;2022-10-13T00:34:59;8.90;99.90
14119;DHT22;7138;49.246;9.100;2022-10-13T00:37:25;8.90;99.90
14119;DHT22;7138;49.246;9.100;2022-10-13T00:39:53;8.90;99.90
14119;DHT22;7138;49.246;9.100;2022-10-13T00:42:19;8.80;99.90
14119;DHT22;7138;49.246;9.100;2022-10-13T00:45:00;8.80;99.90
14119;DHT22;7138;49.246;9.100;2022-10-13T00:47:34;8.80;99.90
14119;DHT22;7138;49.246;9.100;2022-10-13T00:50:05;8.80;99.90
14119;DHT22;7138;49.246;9.100;2022-10-13T00:52:36;8.70;99.90
14119;DHT22;7138;49.246;9.100;2022-10-13T00:55:06;8.70;99.90
14119;DHT22;7138;49.246;9.100;2022-10-13T00:57:37;8.70;99.90
14119;DHT22;7138;49.246;9.100;2022-10-13T01:00:07;8.60;99.90
14119;DHT22;7138;49.246;9.100;2022-10-13T01:02:35;8.50;99.90
14119;DHT22;7138;49.246;9.100;2022-10-13T01:05:04;8.50;99.90
14119;DHT22;7138;49.246;9.100;2022-10-13T01:07:32;8.50;99.90
14119;DHT22;7138;49.246;9.100;2022-10-13T01:09:59;8.50;99.90
14119;DHT22;7138;49.246;9.100;2022-10-13T01:12:38;8.50;99.90
14119;DHT22;7138;49.246;9.100;2022-10-13T01:15:18;8.30;99.90
14119;DHT22;7138;49.246;9.100;2022-10-13T01:17:57;8.40;99.90
14119;DHT22;7138;49.246;9.100;2022-10-13T01:20:53;8.40;99.90
14119;DHT22;7138;49.246;9.100;2022-10-13T01:23:46;8.50;99.90
14119;DHT22;7138;49.246;9.100;2022-10-13T01:26:50;8.40;99.90
14119;DHT22;7138;49.246;9.100;2022-10-13T01:33:03;8.50;99.90
14119;DHT22;7138;49.246;9.100;2022-10-13T01:35:54;8.50;99.90
14119;DHT22;7138;49.246;9.100;2022-10-13T01:38:33;8.50;99.90
14119;DHT22;7138;49.246;9.100;2022-10-13T01:41:10;8.50;99.90
14119;DHT22;7138;49.246;9.100;2022-10-13T01:43:44;8.50;99.90
14119;DHT22;7138;49.246;9.100;2022-10-13T01:46:19;8.50;99.90
14119;DHT22;7138;49.246;9.100;2022-10-13T01:48:50;8.60;99.90
14119;DHT22;7138;49.246;9.100;2022-10-13T01:51:21;8.60;99.90
14119;DHT22;7138;49.246;9.100;2022-10-13T01:53:50;8.60;99.90
14119;DHT22;7138;49.246;9.100;2022-10-13T01:56:16;8.50;99.90
14119;DHT22;7138;49.246;9.100;2022-10-13T01:58:44;8.50;99.90
14119;DHT22;7138;49.246;9.100;2022-10-13T02:01:25;8.50;99.90
14119;DHT22;7138;49.246;9.100;2022-10-13T02:04:11;8.60;99.90
14119;DHT22;7138;49.246;9.100;2022-10-13T02:06:49;8.60;99.90
14119;DHT22;7138;49.246;9.100;2022-10-13T02:09:21;8.60;99.90
14119;DHT22;7138;49.246;9.100;2022-10-13T02:11:55;8.70;99.90
14119;DHT22;7138;49.246;9.100;2022-10-13T02:14:27;8.70;99.90
14119;DHT22;7138;49.246;9.100;2022-10-13T02:17:00;8.80;99.90
14119;DHT22;7138;49.246;9.100;2022-10-13T02:19:30;8.70;99.90
14119;DHT22;7138;49.246;9.100;2022-10-13T02:21:59;8.80;99.90
14119;DHT22;7138;49.246;9.100;2022-10-13T02:24:25;8.80;99.90
14119;DHT22;7138;49.246;9.100;2022-10-13T02:26:51;8.90;99.90
14119;DHT22;7138;49.246;9.100;2022-10-13T02:29:18;8.90;99.90
14119;DHT22;7138;49.246;9.100;2022-10-13T02:31:45;8.90;99.90
14119;DHT22;7138;49.246;9.100;2022-10-13T02:34:13;9.00;99.90
14119;DHT22;7138;49.246;9.100;2022-10-13T02:36:39;9.10;99.90
14119;DHT22;7138;49.246;9.100;2022-10-13T02:39:06;9.10;99.90
14119;DHT22;7138;49.246;9.100;2022-10-13T02:41:34;9.20;99.90
14119;DHT22;7138;49.246;9.100;2022-10-13T02:44:00;9.10;99.90
14119;DHT22;7138;49.246;9.100;2022-10-13T02:46:26;9.10;99.90
14119;DHT22;7138;49.246;9.100;2022-10-13T02:48:51;9.20;99.90
14119;DHT22;7138;49.246;9.100;2022-10-13T02:51:19;9.20;99.90
14119;DHT22;7138;49.246;9.100;2022-10-13T02:53:44;9.20;99.90
14119;DHT22;7138;49.246;9.100;2022-10-13T02:56:11;9.20;99.90
14119;DHT22;7138;49.246;9.100;2022-10-13T02:58:36;9.20;99.90
14119;DHT22;7138;49.246;9.100;2022-10-13T03:01:07;9.20;99.90
14119;DHT22;7138;49.246;9.100;2022-10-13T03:03:34;9.30;99.90
14119;DHT22;7138;49.246;9.100;2022-10-13T03:06:00;9.30;99.90
14119;DHT22;7138;49.246;9.100;2022-10-13T03:08:30;9.30;99.90
14119;DHT22;7138;49.246;9.100;2022-10-13T03:10:56;9.40;99.90
14119;DHT22;7138;49.246;9.100;2022-10-13T03:13:22;9.40;99.90
14119;DHT22;7138;49.246;9.100;2022-10-13T03:15:48;9.40;99.90
14119;DHT22;7138;49.246;9.100;2022-10-13T03:18:14;9.40;99.90
14119;DHT22;7138;49.246;9.100;2022-10-13T03:20:40;9.50;99.90
14119;DHT22;7138;49.246;9.100;2022-10-13T03:23:06;9.50;99.90
14119;DHT22;7138;49.246;9.100;2022-10-13T03:25:34;9.50;99.90
14119;DHT22;7138;49.246;9.100;2022-10-13T03:28:00;9.50;99.90
14119;DHT22;7138;49.246;9.100;2022-10-13T03:30:26;9.50;99.90
14119;DHT22;7138;49.246;9.100;2022-10-13T03:32:52;9.50;99.90
14119;DHT22;7138;49.246;9.100;2022-10-13T03:35:18;9.50;99.90
14119;DHT22;7138;49.246;9.100;2022-10-13T03:37:44;9.60;99.90
14119;DHT22;7138;49.246;9.100;2022-10-13T03:40:10;9.60;99.90
14119;DHT22;7138;49.246;9.100;2022-10-13T03:42:38;9.60;99.90
14119;DHT22;7138;49.246;9.100;2022-10-13T03:45:05;9.60;99.90
14119;DHT22;7138;49.246;9.100;2022-10-13T03:47:33;9.60;99.90
14119;DHT22;7138;49.246;9.100;2022-10-13T03:50:00;9.70;99.90
14119;DHT22;7138;49.246;9.100;2022-10-13T03:52:26;9.60;99.90
14119;DHT22;7138;49.246;9.100;2022-10-13T03:54:52;9.70;99.90
14119;DHT22;7138;49.246;9.100;2022-10-13T03:57:18;9.70;99.90
14119;DHT22;7138;49.246;9.100;2022-10-13T03:59:45;9.70;99.90
14119;DHT22;7138;49.246;9.100;2022-10-13T04:02:11;9.70;99.90
14119;DHT22;7138;49.246;9.100;2022-10-13T04:04:37;9.70;99.90
14119;DHT22;7138;49.246;9.100;2022-10-13T04:09:37;9.70;99.90
14119;DHT22;7138;49.246;9.100;2022-10-13T04:12:03;9.80;99.90
14119;DHT22;7138;49.246;9.100;2022-10-13T04:14:29;9.70;99.90
14119;DHT22;7138;49.246;9.100;2022-10-13T04:16:56;9.80;99.90
14119;DHT22;7138;49.246;9.100;2022-10-13T04:19:22;9.80;99.90
14119;DHT22;7138;49.246;9.100;2022-10-13T04:21:48;9.80;99.90
14119;DHT22;7138;49.246;9.100;2022-10-13T04:24:14;9.80;99.90
14119;DHT22;7138;49.246;9.100;2022-10-13T04:26:42;9.80;99.90
14119;DHT22;7138;49.246;9.100;2022-10-13T04:29:09;9.80;99.90
14119;DHT22;7138;49.246;9.100;2022-10-13T04:31:37;9.80;99.90
14119;DHT22;7138;49.246;9.100;2022-10-13T04:34:04;9.90;99.90
14119;DHT22;7138;49.246;9.100;2022-10-13T04:36:32;9.90;99.90
14119;DHT22;7138;49.246;9.100;2022-10-13T04:38:57;10.00;99.90
14119;DHT22;7138;49.246;9.100;2022-10-13T04:41:24;10.00;99.90
14119;DHT22;7138;49.246;9.100;2022-10-13T04:43:51;10.00;99.90
14119;DHT22;7138;49.246;9.100;2022-10-13T04:46:20;10.00;99.90
14119;DHT22;7138;49.246;9.100;2022-10-13T04:48:48;10.00;99.90
14119;DHT22;7138;49.246;9.100;2022-10-13T04:51:17;10.10;99.90
14119;DHT22;7138;49.246;9.100;2022-10-13T04:53:45;10.00;99.90
14119;DHT22;7138;49.246;9.100;2022-10-13T04:56:12;10.00;99.90
14119;DHT22;7138;49.246;9.100;2022-10-13T04:58:41;10.00;99.90
14119;DHT22;7138;49.246;9.100;2022-10-13T05:01:12;9.90;99.90
14119;DHT22;7138;49.246;9.100;2022-10-13T05:03:41;9.90;99.90
14119;DHT22;7138;49.246;9.100;2022-10-13T05:06:13;9.90;99.90
14119;DHT22;7138;49.246;9.100;2022-10-13T05:08:40;9.90;99.90
14119;DHT22;7138;49.246;9.100;2022-10-13T05:11:06;9.80;99.90
14119;DHT22;7138;49.246;9.100;2022-10-13T05:13:32;9.80;99.90
14119;DHT22;7138;49.246;9.100;2022-10-13T05:15:58;9.80;99.90
14119;DHT22;7138;49.246;9.100;2022-10-13T05:18:24;9.80;99.90
14119;DHT22;7138;49.246;9.100;2022-10-13T05:20:50;9.80;99.90
14119;DHT22;7138;49.246;9.100;2022-10-13T05:23:16;9.80;99.90
14119;DHT22;7138;49.246;9.100;2022-10-13T05:25:43;9.70;99.90
14119;DHT22;7138;49.246;9.100;2022-10-13T05:28:09;9.70;99.90
14119;DHT22;7138;49.246;9.100;2022-10-13T05:30:35;9.70;99.90
14119;DHT22;7138;49.246;9.100;2022-10-13T05:33:01;9.70;99.90
14119;DHT22;7138;49.246;9.100;2022-10-13T05:35:27;9.60;99.90
14119;DHT22;7138;49.246;9.100;2022-10-13T05:37:53;9.60;99.90
14119;DHT22;7138;49.246;9.100;2022-10-13T05:40:19;9.60;99.90
14119;DHT22;7138;49.246;9.100;2022-10-13T05:42:50;9.60;99.90
14119;DHT22;7138;49.246;9.100;2022-10-13T05:45:17;9.70;99.90
14119;DHT22;7138;49.246;9.100;2022-10-13T05:47:46;9.70;99.90
14119;DHT22;7138;49.246;9.100;2022-10-13T05:50:11;9.60;99.90
14119;DHT22;7138;49.246;9.100;2022-10-13T05:52:37;9.60;99.90
14119;DHT22;7138;49.246;9.100;2022-10-13T05:55:05;9.60;99.90
14119;DHT22;7138;49.246;9.100;2022-10-13T05:57:37;9.70;99.90
14119;DHT22;7138;49.246;9.100;2022-10-13T06:00:08;9.70;99.90
14119;DHT22;7138;49.246;9.100;2022-10-13T06:02:41;9.70;99.90
14119;DHT22;7138;49.246;9.100;2022-10-13T06:05:13;9.70;99.90
14119;DHT22;7138;49.246;9.100;2022-10-13T06:07:42;9.70;99.90
14119;DHT22;7138;49.246;9.100;2022-10-13T06:10:10;9.70;99.90
14119;DHT22;7138;49.246;9.100;2022-10-13T06:12:37;9.80;99.90
14119;DHT22;7138;49.246;9.100;2022-10-13T06:15:03;9.70;99.90
14119;DHT22;7138;49.246;9.100;2022-10-13T06:17:31;9.60;99.90
14119;DHT22;7138;49.246;9.100;2022-10-13T06:20:00;9.70;99.90
14119;DHT22;7138;49.246;9.100;2022-10-13T06:22:26;9.70;99.90
14119;DHT22;7138;49.246;9.100;2022-10-13T06:24:52;9.80;99.90
14119;DHT22;7138;49.246;9.100;2022-10-13T06:27:18;9.90;99.90
14119;DHT22;7138;49.246;9.100;2022-10-13T06:29:44;9.90;99.90
14119;DHT22;7138;49.246;9.100;2022-10-13T06:32:10;10.00;99.90
14119;DHT22;7138;49.246;9.100;2022-10-13T06:34:37;10.00;99.90
14119;DHT22;7138;49.246;9.100;2022-10-13T06:37:03;10.00;99.90
14119;DHT22;7138;49.246;9.100;2022-10-13T06:39:29;10.00;99.90
14119;DHT22;7138;49.246;9.100;2022-10-13T06:41:54;10.00;99.90
14119;DHT22;7138;49.246;9.100;2022-10-13T06:44:20;10.00;99.90
14119;DHT22;7138;49.246;9.100;2022-10-13T06:46:46;10.00;99.90
14119;DHT22;7138;49.246;9.100;2022-10-13T06:49:12;10.00;99.90
14119;DHT22;7138;49.246;9.100;2022-10-13T06:51:39;10.10;99.90
14119;DHT22;7138;49.246;9.100;2022-10-13T06:54:05;10.10;99.90
14119;DHT22;7138;49.246;9.100;2022-10-13T06:56:31;10.20;99.90
14119;DHT22;7138;49.246;9.100;2022-10-13T06:58:57;10.20;99.90
14119;DHT22;7138;49.246;9.100;2022-10-13T07:01:23;10.30;99.90
14119;DHT22;7138;49.246;9.100;2022-10-13T07:03:49;10.30;99.90
14119;DHT22;7138;49.246;9.100;2022-10-13T07:06:15;10.30;99.90
14119;DHT22;7138;49.246;9.100;2022-10-13T07:08:43;10.30;99.90
14119;DHT22;7138;49.246;9.100;2022-10-13T07:11:11;10.40;99.90
14119;DHT22;7138;49.246;9.100;2022-10-13T07:13:39;10.40;99.90
14119;DHT22;7138;49.246;9.100;2022-10-13T07:16:06;10.40;99.90
14119;DHT22;7138;49.246;9.100;2022-10-13T07:18:33;10.50;99.90
14119;DHT22;7138;49.246;9.100;2022-10-13T07:20:59;10.70;99.90
14119;DHT22;7138;49.246;9.100;2022-10-13T07:23:26;10.90;99.90
14119;DHT22;7138;49.246;9.100;2022-10-13T07:25:54;11.00;99.90
14119;DHT22;7138;49.246;9.100;2022-10-13T07:28:24;10.90;99.90
14119;DHT22;7138;49.246;9.100;2022-10-13T07:30:50;10.80;99.90
14119;DHT22;7138;49.246;9.100;2022-10-13T07:33:16;10.90;99.90
14119;DHT22;7138;49.246;9.100;2022-10-13T07:35:43;10.70;99.90
14119;DHT22;7138;49.246;9.100;2022-10-13T07:38:08;10.80;99.90
14119;DHT22;7138;49.246;9.100;2022-10-13T07:40:34;10.90;99.90
14119;DHT22;7138;49.246;9.100;2022-10-13T07:43:02;10.90;99.90
14119;DHT22;7138;49.246;9.100;2022-10-13T07:45:28;10.90;99.90
14119;DHT22;7138;49.246;9.100;2022-10-13T07:47:53;11.10;99.90
14119;DHT22;7138;49.246;9.100;2022-10-13T07:50:20;11.10;99.90
14119;DHT22;7138;49.246;9.100;2022-10-13T07:52:46;11.40;99.90
14119;DHT22;7138;49.246;9.100;2022-10-13T07:55:12;11.50;99.90
14119;DHT22;7138;49.246;9.100;2022-10-13T07:57:38;11.50;99.90
14119;DHT22;7138;49.246;9.100;2022-10-13T08:00:07;11.40;99.90
14119;DHT22;7138;49.246;9.100;2022-10-13T08:02:34;11.60;99.90
14119;DHT22;7138;49.246;9.100;2022-10-13T08:05:01;11.60;99.90
14119;DHT22;7138;49.246;9.100;2022-10-13T08:07:28;11.70;99.90
14119;DHT22;7138;49.246;9.100;2022-10-13T08:09:53;11.90;99.90
14119;DHT22;7138;49.246;9.100;2022-10-13T08:12:20;12.10;99.90
14119;DHT22;7138;49.246;9.100;2022-10-13T08:14:49;12.20;99.90
14119;DHT22;7138;49.246;9.100;2022-10-13T08:17:16;12.30;99.90
14119;DHT22;7138;49.246;9.100;2022-10-13T08:19:42;12.60;99.90
14119;DHT22;7138;49.246;9.100;2022-10-13T08:22:08;12.70;99.90
14119;DHT22;7138;49.246;9.100;2022-10-13T08:24:34;13.00;99.90
14119;DHT22;7138;49.246;9.100;2022-10-13T08:27:00;13.30;99.90
14119;DHT22;7138;49.246;9.100;2022-10-13T08:29:26;13.60;99.90
14119;DHT22;7138;49.246;9.100;2022-10-13T08:31:53;13.70;99.90
14119;DHT22;7138;49.246;9.100;2022-10-13T08:34:21;13.70;99.90
14119;DHT22;7138;49.246;9.100;2022-10-13T08:36:47;14.00;99.90
14119;DHT22;7138;49.246;9.100;2022-10-13T08:39:17;14.30;99.90
14119;DHT22;7138;49.246;9.100;2022-10-13T08:41:43;14.60;99.90
14119;DHT22;7138;49.246;9.100;2022-10-13T08:44:18;14.50;99.90
14119;DHT22;7138;49.246;9.100;2022-10-13T08:46:53;14.40;99.90
14119;DHT22;7138;49.246;9.100;2022-10-13T08:49:29;14.50;99.90
14119;DHT22;7138;49.246;9.100;2022-10-13T08:51:56;14.60;99.90
14119;DHT22;7138;49.246;9.100;2022-10-13T08:54:25;14.50;99.90
14119;DHT22;7138;49.246;9.100;2022-10-13T08:56:51;14.40;99.90
14119;DHT22;7138;49.246;9.100;2022-10-13T08:59:17;14.50;99.90
14119;DHT22;7138;49.246;9.100;2022-10-13T09:01:46;14.60;99.90
14119;DHT22;7138;49.246;9.100;2022-10-13T09:04:30;14.50;99.90
14119;DHT22;7138;49.246;9.100;2022-10-13T09:07:04;14.50;99.90
14119;DHT22;7138;49.246;9.100;2022-10-13T09:09:37;14.50;99.90
14119;DHT22;7138;49.246;9.100;2022-10-13T09:12:04;14.60;99.90
14119;DHT22;7138;49.246;9.100;2022-10-13T09:14:33;14.50;99.90
14119;DHT22;7138;49.246;9.100;2022-10-13T09:17:13;14.40;99.90
14119;DHT22;7138;49.246;9.100;2022-10-13T09:19:43;14.40;99.90
14119;DHT22;7138;49.246;9.100;2022-10-13T09:22:18;14.50;99.90
14119;DHT22;7138;49.246;9.100;2022-10-13T09:24:55;14.60;99.90
14119;DHT22;7138;49.246;9.100;2022-10-13T09:27:43;14.70;99.90
14119;DHT22;7138;49.246;9.100;2022-10-13T09:30:27;14.70;99.90
14119;DHT22;7138;49.246;9.100;2022-10-13T09:33:10;14.70;99.90
14119;DHT22;7138;49.246;9.100;2022-10-13T09:35:44;14.70;99.90
14119;DHT22;7138;49.246;9.100;2022-10-13T09:38:13;14.60;99.90
14119;DHT22;7138;49.246;9.100;2022-10-13T09:40:41;14.60;99.90
14119;DHT22;7138;49.246;9.100;2022-10-13T09:43:24;14.50;99.90
14119;DHT22;7138;49.246;9.100;2022-10-13T09:45:55;14.50;99.90
14119;DHT22;7138;49.246;9.100;2022-10-13T09:48:26;14.40;99.90
14119;DHT22;7138;49.246;9.100;2022-10-13T09:50:55;14.40;99.90
14119;DHT22;7138;49.246;9.100;2022-10-13T09:53:27;14.30;99.90
14119;DHT22;7138;49.246;9.100;2022-10-13T09:56:08;14.30;99.90
14119;DHT22;7138;49.246;9.100;2022-10-13T09:58:47;14.30;99.90
14119;DHT22;7138;49.246;9.100;2022-10-13T10:01:22;14.30;99.90
14119;DHT22;7138;49.246;9.100;2022-10-13T10:03:51;14.30;99.90
14119;DHT22;7138;49.246;9.100;2022-10-13T10:06:19;14.30;99.90
14119;DHT22;7138;49.246;9.100;2022-10-13T10:08:52;14.40;99.90
14119;DHT22;7138;49.246;9.100;2022-10-13T10:11:26;14.60;99.90
14119;DHT22;7138;49.246;9.100;2022-10-13T10:13:55;14.70;99.90
14119;DHT22;7138;49.246;9.100;2022-10-13T10:16:24;14.70;99.90
14119;DHT22;7138;49.246;9.100;2022-10-13T10:19:00;14.70;99.90
14119;DHT22;7138;49.246;9.100;2022-10-13T10:21:35;14.60;99.90
14119;DHT22;7138;49.246;9.100;2022-10-13T10:24:17;14.50;99.90
14119;DHT22;7138;49.246;9.100;2022-10-13T10:26:53;14.50;99.90
14119;DHT22;7138;49.246;9.100;2022-10-13T10:29:28;14.40;99.90
14119;DHT22;7138;49.246;9.100;2022-10-13T10:32:17;14.40;99.90
14119;DHT22;7138;49.246;9.100;2022-10-13T10:34:53;14.40;99.90
14119;DHT22;7138;49.246;9.100;2022-10-13T10:37:35;14.30;99.90
14119;DHT22;7138;49.246;9.100;2022-10-13T10:40:23;14.30;99.90
14119;DHT22;7138;49.246;9.100;2022-10-13T10:43:28;14.30;99.90
14119;DHT22;7138;49.246;9.100;2022-10-13T10:46:04;14.30;99.90
14119;DHT22;7138;49.246;9.100;2022-10-13T10:48:39;14.40;99.90
14119;DHT22;7138;49.246;9.100;2022-10-13T10:51:07;14.40;99.90
14119;DHT22;7138;49.246;9.100;2022-10-13T10:53:41;14.50;99.90
14119;DHT22;7138;49.246;9.100;2022-10-13T10:56:20;14.60;99.90
14119;DHT22;7138;49.246;9.100;2022-10-13T10:59:01;14.60;99.90
14119;DHT22;7138;49.246;9.100;2022-10-13T11:01:42;14.80;99.90
14119;DHT22;7138;49.246;9.100;2022-10-13T11:04:39;14.90;99.90
14119;DHT22;7138;49.246;9.100;2022-10-13T11:07:11;15.00;99.90
14119;DHT22;7138;49.246;9.100;2022-10-13T11:10:18;14.90;99.90
14119;DHT22;7138;49.246;9.100;2022-10-13T11:15:42;15.00;99.90
14119;DHT22;7138;49.246;9.100;2022-10-13T11:25:00;15.20;99.90
14119;DHT22;7138;49.246;9.100;2022-10-13T11:27:40;15.30;99.90
14119;DHT22;7138;49.246;9.100;2022-10-13T11:30:42;15.50;99.90
14119;DHT22;7138;49.246;9.100;2022-10-13T11:33:55;15.80;99.90
14119;DHT22;7138;49.246;9.100;2022-10-13T11:36:49;15.90;99.90
14119;DHT22;7138;49.246;9.100;2022-10-13T11:39:39;15.90;99.90
14119;DHT22;7138;49.246;9.100;2022-10-13T11:46:04;16.50;99.90
14119;DHT22;7138;49.246;9.100;2022-10-13T11:49:14;16.60;99.90
14119;DHT22;7138;49.246;9.100;2022-10-13T11:52:28;16.70;99.90
14119;DHT22;7138;49.246;9.100;2022-10-13T11:55:18;16.50;99.90
14119;DHT22;7138;49.246;9.100;2022-10-13T11:58:07;16.40;99.90
14119;DHT22;7138;49.246;9.100;2022-10-13T12:00:33;16.40;99.90
14119;DHT22;7138;49.246;9.100;2022-10-13T12:03:01;16.30;99.90
14119;DHT22;7138;49.246;9.100;2022-10-13T12:05:27;16.30;99.90
14119;DHT22;7138;49.246;9.100;2022-10-13T12:07:57;16.70;99.90
14119;DHT22;7138;49.246;9.100;2022-10-13T12:10:30;16.90;99.90
14119;DHT22;7138;49.246;9.100;2022-10-13T12:12:59;17.00;99.90
14119;DHT22;7138;49.246;9.100;2022-10-13T12:15:30;16.90;99.90
14119;DHT22;7138;49.246;9.100;2022-10-13T12:18:01;17.20;99.90
14119;DHT22;7138;49.246;9.100;2022-10-13T12:20:51;16.60;99.90
14119;DHT22;7138;49.246;9.100;2022-10-13T12:23:18;16.90;99.90
14119;DHT22;7138;49.246;9.100;2022-10-13T12:25:46;17.10;99.90
14119;DHT22;7138;49.246;9.100;2022-10-13T12:28:17;17.20;99.90
14119;DHT22;7138;49.246;9.100;2022-10-13T12:30:50;17.10;99.90
14119;DHT22;7138;49.246;9.100;2022-10-13T12:33:28;17.00;99.90
14119;DHT22;7138;49.246;9.100;2022-10-13T12:35:55;17.00;99.90
14119;DHT22;7138;49.246;9.100;2022-10-13T12:38:36;16.90;99.90
14119;DHT22;7138;49.246;9.100;2022-10-13T12:41:06;16.80;99.90
14119;DHT22;7138;49.246;9.100;2022-10-13T12:43:34;16.80;99.90
14119;DHT22;7138;49.246;9.100;2022-10-13T12:46:00;16.60;99.90
14119;DHT22;7138;49.246;9.100;2022-10-13T12:48:29;16.70;99.90
14119;DHT22;7138;49.246;9.100;2022-10-13T12:51:07;16.90;99.90
14119;DHT22;7138;49.246;9.100;2022-10-13T12:53:40;16.80;99.90
14119;DHT22;7138;49.246;9.100;2022-10-13T12:56:06;16.80;99.90
14119;DHT22;7138;49.246;9.100;2022-10-13T12:58:42;16.70;99.90
14119;DHT22;7138;49.246;9.100;2022-10-13T13:01:29;16.60;99.90
14119;DHT22;7138;49.246;9.100;2022-10-13T13:04:00;16.60;99.90
14119;DHT22;7138;49.246;9.100;2022-10-13T13:06:50;16.50;99.90
14119;DHT22;7138;49.246;9.100;2022-10-13T13:09:24;16.50;99.90
14119;DHT22;7138;49.246;9.100;2022-10-13T13:12:26;16.20;99.90
14119;DHT22;7138;49.246;9.100;2022-10-13T13:14:53;16.20;99.90
14119;DHT22;7138;49.246;9.100;2022-10-13T13:17:30;16.30;99.90
14119;DHT22;7138;49.246;9.100;2022-10-13T13:19:58;16.20;99.90
14119;DHT22;7138;49.246;9.100;2022-10-13T13:22:24;16.20;99.90
14119;DHT22;7138;49.246;9.100;2022-10-13T13:24:50;16.20;99.90
14119;DHT22;7138;49.246;9.100;2022-10-13T13:27:19;16.20;99.90
14119;DHT22;7138;49.246;9.100;2022-10-13T13:29:49;16.20;99.90
14119;DHT22;7138;49.246;9.100;2022-10-13T13:32:19;16.20;99.90
14119;DHT22;7138;49.246;9.100;2022-10-13T13:34:46;16.20;99.90
14119;DHT22;7138;49.246;9.100;2022-10-13T13:37:19;16.20;99.90
14119;DHT22;7138;49.246;9.100;2022-10-13T13:39:49;16.20;99.90
14119;DHT22;7138;49.246;9.100;2022-10-13T13:42:15;16.20;99.90
14119;DHT22;7138;49.246;9.100;2022-10-13T13:44:41;16.30;99.90
14119;DHT22;7138;49.246;9.100;2022-10-13T13:47:18;16.30;99.90
14119;DHT22;7138;49.246;9.100;2022-10-13T13:49:45;16.30;99.90
14119;DHT22;7138;49.246;9.100;2022-10-13T13:52:14;16.30;99.90
14119;DHT22;7138;49.246;9.100;2022-10-13T13:54:40;16.30;99.90
14119;DHT22;7138;49.246;9.100;2022-10-13T13:57:06;16.30;99.90
14119;DHT22;7138;49.246;9.100;2022-10-13T13:59:33;16.30;99.90
14119;DHT22;7138;49.246;9.100;2022-10-13T14:01:59;16.20;99.90
14119;DHT22;7138;49.246;9.100;2022-10-13T14:04:25;16.20;99.90
14119;DHT22;7138;49.246;9.100;2022-10-13T14:06:51;16.10;99.90
14119;DHT22;7138;49.246;9.100;2022-10-13T14:09:18;16.10;99.90
14119;DHT22;7138;49.246;9.100;2022-10-13T14:11:44;16.10;99.90
14119;DHT22;7138;49.246;9.100;2022-10-13T14:14:10;16.10;99.90
14119;DHT22;7138;49.246;9.100;2022-10-13T14:16:36;16.00;99.90
14119;DHT22;7138;49.246;9.100;2022-10-13T14:19:02;16.10;99.90
14119;DHT22;7138;49.246;9.100;2022-10-13T14:21:28;16.00;99.90
14119;DHT22;7138;49.246;9.100;2022-10-13T14:23:54;16.00;99.90
14119;DHT22;7138;49.246;9.100;2022-10-13T14:26:21;16.00;99.90
14119;DHT22;7138;49.246;9.100;2022-10-13T14:28:48;16.00;99.90
14119;DHT22;7138;49.246;9.100;2022-10-13T14:31:14;15.90;99.90
14119;DHT22;7138;49.246;9.100;2022-10-13T14:33:40;15.90;99.90
14119;DHT22;7138;49.246;9.100;2022-10-13T14:36:06;15.80;99.90
14119;DHT22;7138;49.246;9.100;2022-10-13T14:38:33;15.90;99.90
14119;DHT22;7138;49.246;9.100;2022-10-13T14:41:00;16.00;99.90
14119;DHT22;7138;49.246;9.100;2022-10-13T14:43:29;16.00;99.90
14119;DHT22;7138;49.246;9.100;2022-10-13T14:45:59;16.10;99.90
14119;DHT22;7138;49.246;9.100;2022-10-13T14:48:26;16.10;99.90
14119;DHT22;7138;49.246;9.100;2022-10-13T14:50:51;16.10;99.90
14119;DHT22;7138;49.246;9.100;2022-10-13T14:53:17;16.10;99.90
14119;DHT22;7138;49.246;9.100;2022-10-13T14:55:44;16.20;99.90
14119;DHT22;7138;49.246;9.100;2022-10-13T14:58:10;16.20;99.90
14119;DHT22;7138;49.246;9.100;2022-10-13T15:00:38;16.10;99.90
14119;DHT22;7138;49.246;9.100;2022-10-13T15:03:06;16.20;99.90
14119;DHT22;7138;49.246;9.100;2022-10-13T15:05:32;16.20;99.90
14119;DHT22;7138;49.246;9.100;2022-10-13T15:07:58;16.10;99.90
14119;DHT22;7138;49.246;9.100;2022-10-13T15:10:24;16.00;99.90
14119;DHT22;7138;49.246;9.100;2022-10-13T15:12:50;16.00;99.90
14119;DHT22;7138;49.246;9.100;2022-10-13T15:15:16;15.90;99.90
14119;DHT22;7138;49.246;9.100;2022-10-13T15:17:43;15.90;99.90
14119;DHT22;7138;49.246;9.100;2022-10-13T15:20:10;15.90;99.90
14119;DHT22;7138;49.246;9.100;2022-10-13T15:22:36;15.80;99.90
14119;DHT22;7138;49.246;9.100;2022-10-13T15:25:02;15.80;99.90
14119;DHT22;7138;49.246;9.100;2022-10-13T15:27:32;15.70;99.90
14119;DHT22;7138;49.246;9.100;2022-10-13T15:29:58;15.80;99.90
14119;DHT22;7138;49.246;9.100;2022-10-13T15:32:23;15.70;99.90
14119;DHT22;7138;49.246;9.100;2022-10-13T15:34:51;15.70;99.90
14119;DHT22;7138;49.246;9.100;2022-10-13T15:37:17;15.70;99.90
14119;DHT22;7138;49.246;9.100;2022-10-13T15:39:42;15.60;99.90
14119;DHT22;7138;49.246;9.100;2022-10-13T15:42:09;15.60;99.90
14119;DHT22;7138;49.246;9.100;2022-10-13T15:44:36;15.60;99.90
14119;DHT22;7138;49.246;9.100;2022-10-13T15:47:05;15.60;99.90
14119;DHT22;7138;49.246;9.100;2022-10-13T15:49:34;15.50;99.90
14119;DHT22;7138;49.246;9.100;2022-10-13T15:52:05;15.50;99.90
14119;DHT22;7138;49.246;9.100;2022-10-13T15:54:31;15.50;99.90
14119;DHT22;7138;49.246;9.100;2022-10-13T15:56:57;15.40;99.90
14119;DHT22;7138;49.246;9.100;2022-10-13T15:59:23;15.40;99.90
14119;DHT22;7138;49.246;9.100;2022-10-13T16:01:50;15.40;99.90
14119;DHT22;7138;49.246;9.100;2022-10-13T16:04:15;15.30;99.90
14119;DHT22;7138;49.246;9.100;2022-10-13T16:06:41;15.20;99.90
14119;DHT22;7138;49.246;9.100;2022-10-13T16:09:08;15.20;99.90
14119;DHT22;7138;49.246;9.100;2022-10-13T16:11:34;15.20;99.90
14119;DHT22;7138;49.246;9.100;2022-10-13T16:14:00;15.10;99.90
14119;DHT22;7138;49.246;9.100;2022-10-13T16:16:26;15.10;99.90
14119;DHT22;7138;49.246;9.100;2022-10-13T16:18:53;15.10;99.90
14119;DHT22;7138;49.246;9.100;2022-10-13T16:21:21;15.00;99.90
14119;DHT22;7138;49.246;9.100;2022-10-13T16:23:48;15.00;99.90
14119;DHT22;7138;49.246;9.100;2022-10-13T16:26:16;15.00;99.90
14119;DHT22;7138;49.246;9.100;2022-10-13T16:28:42;15.00;99.90
14119;DHT22;7138;49.246;9.100;2022-10-13T16:31:09;14.90;99.90